createdAt,value
2022-11-17T00:01:38.836Z,14.68
2022-11-17T00:04:07.034Z,16.15
2022-11-17T00:06:35.965Z,17.73
2022-11-17T00:09:04.745Z,16.85
2022-11-17T00:11:52.954Z,18.45
2022-11-17T00:14:33.006Z,18.70
2022-11-17T00:17:02.225Z,18.40
2022-11-17T00:19:48.623Z,19.88
2022-11-17T00:22:17.416Z,19.80
2022-11-17T00:24:45.426Z,20.92
2022-11-17T00:27:13.755Z,18.65
2022-11-17T00:29:41.666Z,18.38
2022-11-17T00:32:33.459Z,18.25
2022-11-17T00:35:02.196Z,16.92
2022-11-17T00:37:35.156Z,17.55
2022-11-17T00:40:04.940Z,19.58
2022-11-17T00:42:33.190Z,20.35
2022-11-17T00:45:01.544Z,19.63
2022-11-17T00:47:30.365Z,19.45
2022-11-17T00:49:58.274Z,19.05
2022-11-17T00:52:26.606Z,18.10
2022-11-17T00:54:54.505Z,18.90
2022-11-17T00:57:22.846Z,17.67
2022-11-17T00:59:50.815Z,18.00
2022-11-17T01:02:20.145Z,19.13
2022-11-17T01:04:48.187Z,18.90
2022-11-17T01:07:16.527Z,16.75
2022-11-17T01:09:44.506Z,17.23
2022-11-17T01:12:12.767Z,17.48
2022-11-17T01:14:40.779Z,15.73
2022-11-17T01:17:09.866Z,13.55
2022-11-17T01:19:37.796Z,12.32
2022-11-17T01:22:07.015Z,13.63
2022-11-17T01:24:35.005Z,13.95
2022-11-17T01:27:03.505Z,14.77
2022-11-17T01:29:31.506Z,15.52
2022-11-17T01:32:00.975Z,16.15
2022-11-17T01:34:28.927Z,16.30
2022-11-17T01:37:32.348Z,15.88
2022-11-17T01:40:00.755Z,16.42
2022-11-17T01:42:29.717Z,14.65
2022-11-17T01:45:01.907Z,15.30
2022-11-17T01:47:47.986Z,14.75
2022-11-17T01:50:34.524Z,16.77
2022-11-17T01:53:08.899Z,17.13
2022-11-17T01:55:58.518Z,15.20
2022-11-17T01:58:38.723Z,18.40
2022-11-17T02:01:07.086Z,18.10
2022-11-17T02:03:37.346Z,14.45
2022-11-17T02:06:09.216Z,15.90
2022-11-17T02:08:41.420Z,16.27
2022-11-17T02:11:14.654Z,14.80
2022-11-17T02:13:42.954Z,14.85
2022-11-17T02:16:16.155Z,15.68
2022-11-17T02:18:46.253Z,16.70
2022-11-17T02:21:44.814Z,16.45
2022-11-17T02:24:27.505Z,16.67
2022-11-17T02:27:32.934Z,17.10
2022-11-17T02:30:07.783Z,16.35
2022-11-17T02:32:46.164Z,15.93
2022-11-17T02:35:28.084Z,17.42
2022-11-17T02:38:02.464Z,13.88
2022-11-17T02:40:48.815Z,14.38
2022-11-17T02:43:39.103Z,14.98
2022-11-17T02:46:23.703Z,16.13
2022-11-17T02:49:06.024Z,13.68
2022-11-17T02:51:37.393Z,13.35
2022-11-17T02:54:06.233Z,13.70
2022-11-17T02:56:34.473Z,14.30
2022-11-17T02:59:05.383Z,15.30
2022-11-17T03:01:36.241Z,13.30
2022-11-17T03:04:26.163Z,12.85
2022-11-17T03:07:06.683Z,13.93
2022-11-17T03:09:45.554Z,12.77
2022-11-17T03:12:23.873Z,11.50
2022-11-17T03:14:57.372Z,11.13
2022-11-17T03:17:48.304Z,10.63
2022-11-17T03:20:33.843Z,11.68
2022-11-17T03:23:17.944Z,13.02
2022-11-17T03:25:51.982Z,12.00
2022-11-17T03:28:24.782Z,10.70
2022-11-17T03:30:54.635Z,12.35
2022-11-17T03:33:26.232Z,11.50
2022-11-17T03:36:13.912Z,12.63
2022-11-17T03:38:53.963Z,10.90
2022-11-17T03:41:23.954Z,11.63
2022-11-17T03:43:54.152Z,10.40
2022-11-17T03:46:24.585Z,10.50
2022-11-17T03:49:04.541Z,10.38
2022-11-17T03:51:33.764Z,9.50
2022-11-17T03:54:03.174Z,10.45
2022-11-17T03:56:55.881Z,11.52
2022-11-17T03:59:44.017Z,10.30
2022-11-17T04:02:18.702Z,9.25
2022-11-17T04:05:05.685Z,9.45
2022-11-17T04:07:40.805Z,10.15
2022-11-17T04:10:19.292Z,9.38
2022-11-17T04:13:07.532Z,9.63
2022-11-17T04:15:54.311Z,10.40
2022-11-17T04:18:23.493Z,9.88
2022-11-17T04:20:54.536Z,9.52
2022-11-17T04:23:24.312Z,9.68
2022-11-17T04:26:15.514Z,10.88
2022-11-17T04:28:47.567Z,10.45
2022-11-17T04:31:24.646Z,11.25
2022-11-17T04:33:55.391Z,8.98
2022-11-17T04:36:33.551Z,13.40
2022-11-17T04:39:01.671Z,11.43
2022-11-17T04:41:48.982Z,11.23
2022-11-17T04:44:18.223Z,10.13
2022-11-17T04:46:47.260Z,11.38
2022-11-17T04:49:17.286Z,14.90
2022-11-17T04:51:46.668Z,14.02
2022-11-17T04:54:17.689Z,15.27
2022-11-17T04:56:48.518Z,15.32
2022-11-17T04:59:16.619Z,14.02
2022-11-17T05:01:45.770Z,14.25
2022-11-17T05:04:37.479Z,13.93
2022-11-17T05:07:08.448Z,12.55
2022-11-17T05:09:36.748Z,12.77
2022-11-17T05:12:23.698Z,12.93
2022-11-17T05:14:52.681Z,12.95
2022-11-17T05:17:22.453Z,13.98
2022-11-17T05:19:50.469Z,16.10
2022-11-17T05:22:41.410Z,14.07
2022-11-17T05:25:10.668Z,14.20
2022-11-17T05:27:38.909Z,15.63
2022-11-17T05:30:08.556Z,17.67
2022-11-17T05:32:37.790Z,14.88
2022-11-17T05:35:06.188Z,15.00
2022-11-17T05:37:34.466Z,16.00
2022-11-17T05:40:02.480Z,14.95
2022-11-17T05:42:30.815Z,13.98
2022-11-17T05:44:58.779Z,13.65
2022-11-17T05:47:28.266Z,13.50
2022-11-17T05:49:56.067Z,13.10
2022-11-17T05:52:24.256Z,12.60
2022-11-17T05:54:52.997Z,12.20
2022-11-17T05:57:27.938Z,12.57
2022-11-17T06:00:01.173Z,11.77
2022-11-17T06:02:38.906Z,12.00
2022-11-17T06:05:08.676Z,11.60
2022-11-17T06:07:38.990Z,11.15
2022-11-17T06:10:07.360Z,9.93
2022-11-17T06:12:35.676Z,9.45
2022-11-17T06:15:03.907Z,11.02
2022-11-17T06:17:37.249Z,10.73
2022-11-17T06:20:35.796Z,9.87
2022-11-17T06:23:07.716Z,9.93
2022-11-17T06:25:37.310Z,11.38
2022-11-17T06:28:11.011Z,10.55
2022-11-17T06:30:40.167Z,9.85
2022-11-17T06:33:12.280Z,13.25
2022-11-17T06:35:42.916Z,12.18
2022-11-17T06:38:11.099Z,10.68
2022-11-17T06:40:39.439Z,10.60
2022-11-17T06:43:09.847Z,11.30
2022-11-17T06:45:41.034Z,10.38
2022-11-17T06:48:11.702Z,10.20
2022-11-17T06:50:40.157Z,10.30
2022-11-17T06:53:10.907Z,11.02
2022-11-17T06:55:39.119Z,12.68
2022-11-17T06:58:11.748Z,12.73
2022-11-17T07:00:39.967Z,10.57
2022-11-17T07:03:11.503Z,12.55
2022-11-17T07:05:40.376Z,15.40
2022-11-17T07:08:09.848Z,14.95
2022-11-17T07:10:39.205Z,13.75
2022-11-17T07:13:07.246Z,16.90
2022-11-17T07:15:35.618Z,18.67
2022-11-17T07:18:03.567Z,16.80
2022-11-17T07:20:31.860Z,16.38
2022-11-17T07:23:00.527Z,23.05
2022-11-17T07:25:28.794Z,20.35
2022-11-17T07:28:01.085Z,20.98
2022-11-17T07:30:29.765Z,24.52
2022-11-17T07:33:03.847Z,19.75
2022-11-17T07:35:32.397Z,19.08
2022-11-17T07:38:01.857Z,16.00
2022-11-17T07:40:30.279Z,18.25
2022-11-17T07:42:58.183Z,17.90
2022-11-17T07:45:31.927Z,15.75
2022-11-17T07:48:02.605Z,15.43
2022-11-17T07:50:31.545Z,11.68
2022-11-17T07:52:59.641Z,14.25
2022-11-17T07:55:27.955Z,12.27
2022-11-17T07:58:01.145Z,13.80
2022-11-17T08:00:31.390Z,13.27
2022-11-17T08:03:05.214Z,14.82
2022-11-17T08:05:41.542Z,13.40
2022-11-17T08:08:14.836Z,13.75
2022-11-17T08:10:44.177Z,13.47
2022-11-17T08:13:14.318Z,14.23
2022-11-17T08:15:42.667Z,15.45
2022-11-17T08:18:10.592Z,15.32
2022-11-17T08:20:39.192Z,16.60
2022-11-17T08:23:07.261Z,15.73
2022-11-17T08:25:35.514Z,18.83
2022-11-17T08:28:03.624Z,15.98
2022-11-17T08:30:35.551Z,15.02
2022-11-17T08:33:03.578Z,16.25
2022-11-17T08:35:37.273Z,16.33
2022-11-17T08:38:06.002Z,14.57
2022-11-17T08:40:34.407Z,12.63
2022-11-17T08:43:02.344Z,14.02
2022-11-17T08:45:30.811Z,12.48
2022-11-17T08:47:59.183Z,11.80
2022-11-17T08:50:28.129Z,11.38
2022-11-17T08:52:56.204Z,10.98
2022-11-17T08:55:26.650Z,12.25
2022-11-17T08:57:54.593Z,12.32
2022-11-17T09:00:22.986Z,10.55
2022-11-17T09:02:50.936Z,12.77
2022-11-17T09:05:19.284Z,13.35
2022-11-17T09:07:47.428Z,13.45
2022-11-17T09:10:16.623Z,14.73
2022-11-17T09:12:44.552Z,14.88
2022-11-17T09:15:12.763Z,14.00
2022-11-17T09:17:43.895Z,13.70
2022-11-17T09:20:12.714Z,14.20
2022-11-17T09:22:40.883Z,17.35
2022-11-17T09:25:13.315Z,19.35
2022-11-17T09:27:41.675Z,18.00
2022-11-17T09:30:10.962Z,20.17
2022-11-17T09:32:38.822Z,18.55
2022-11-17T09:35:09.604Z,20.75
2022-11-17T09:37:38.073Z,20.48
2022-11-17T09:40:07.664Z,22.65
2022-11-17T09:42:40.301Z,19.55
2022-11-17T09:45:21.224Z,25.60
2022-11-17T09:48:33.680Z,21.00
2022-11-17T09:50:56.523Z,19.38
2022-11-17T09:53:31.564Z,18.27
2022-11-17T09:56:07.632Z,19.42
2022-11-17T09:58:50.124Z,19.25
2022-11-17T10:03:51.030Z,16.65
2022-11-17T10:06:32.125Z,16.98
2022-11-17T10:09:16.403Z,19.45
2022-11-17T10:11:47.983Z,20.20
2022-11-17T10:14:19.413Z,19.63
2022-11-17T10:16:54.975Z,20.30
2022-11-17T10:19:26.076Z,19.73
2022-11-17T10:22:03.249Z,18.85
2022-11-17T10:24:49.023Z,18.42
2022-11-17T10:27:26.825Z,23.40
2022-11-17T10:30:00.526Z,19.50
2022-11-17T10:32:31.578Z,19.35
2022-11-17T10:35:19.865Z,18.17
2022-11-17T10:38:14.606Z,19.23
2022-11-17T10:43:14.216Z,16.10
2022-11-17T10:45:57.313Z,17.65
2022-11-17T10:48:31.326Z,17.15
2022-11-17T10:51:00.624Z,18.75
2022-11-17T10:53:32.220Z,17.63
2022-11-17T10:56:05.014Z,17.25
2022-11-17T10:58:59.331Z,17.33
2022-11-17T11:01:39.185Z,16.50
2022-11-17T11:04:34.745Z,16.35
2022-11-17T11:07:06.999Z,14.85
2022-11-17T11:09:42.304Z,15.43
2022-11-17T11:12:16.461Z,15.98
2022-11-17T11:15:09.499Z,15.40
2022-11-17T11:17:37.626Z,16.80
2022-11-17T11:20:18.494Z,18.00
2022-11-17T11:22:59.441Z,16.70
2022-11-17T11:25:41.946Z,18.23
2022-11-17T11:28:28.494Z,17.40
2022-11-17T11:31:25.675Z,15.30
2022-11-17T11:34:10.643Z,14.93
2022-11-17T11:39:59.304Z,15.32
2022-11-17T11:43:20.675Z,15.88
2022-11-17T11:46:17.894Z,16.00
2022-11-17T11:48:48.264Z,16.00
2022-11-17T11:51:25.363Z,15.23
2022-11-17T11:54:04.417Z,15.73
2022-11-17T11:56:36.766Z,20.15
2022-11-17T11:59:48.508Z,14.32
2022-11-17T12:02:38.485Z,14.20
2022-11-17T12:05:44.115Z,13.23
2022-11-17T12:08:41.228Z,16.02
2022-11-17T12:11:33.354Z,13.00
2022-11-17T12:14:05.383Z,16.17
2022-11-17T12:16:37.936Z,17.48
2022-11-17T12:19:46.073Z,17.40
2022-11-17T12:22:22.715Z,18.90
2022-11-17T12:24:58.504Z,17.10
2022-11-17T12:27:35.328Z,18.40
2022-11-17T12:30:25.934Z,17.85
2022-11-17T12:32:55.534Z,18.45
2022-11-17T12:35:28.803Z,18.05
2022-11-17T12:38:15.443Z,19.87
2022-11-17T12:40:47.914Z,18.20
2022-11-17T12:43:15.865Z,18.50
2022-11-17T12:46:00.267Z,18.88
2022-11-17T12:48:35.740Z,19.33
2022-11-17T12:51:26.885Z,18.25
2022-11-17T12:54:38.333Z,18.52
2022-11-17T12:57:25.336Z,17.35
2022-11-17T13:00:10.944Z,18.27
2022-11-17T13:03:28.503Z,18.27
2022-11-17T13:06:34.810Z,16.42
2022-11-17T13:09:12.296Z,17.42
2022-11-17T13:11:40.174Z,19.95
2022-11-17T13:14:10.475Z,19.05
2022-11-17T13:16:46.604Z,16.98
2022-11-17T13:19:31.455Z,16.10
2022-11-17T13:22:02.594Z,16.17
2022-11-17T13:24:33.829Z,15.73
2022-11-17T13:27:07.703Z,17.73
2022-11-17T13:29:36.073Z,17.38
2022-11-17T13:32:23.829Z,20.00
2022-11-17T13:34:57.964Z,17.13
2022-11-17T13:37:28.553Z,21.25
2022-11-17T13:40:15.486Z,21.40
2022-11-17T13:42:44.233Z,21.42
2022-11-17T13:45:15.847Z,19.27
2022-11-17T13:47:49.683Z,19.92
2022-11-17T13:50:34.585Z,21.55
2022-11-17T13:53:05.615Z,22.13
2022-11-17T13:55:34.964Z,20.67
2022-11-17T13:58:07.074Z,22.75
2022-11-17T14:00:35.484Z,21.17
2022-11-17T14:03:07.222Z,19.92
2022-11-17T14:05:35.544Z,21.80
2022-11-17T14:08:23.794Z,21.45
2022-11-17T14:11:10.456Z,20.05
2022-11-17T14:14:12.302Z,19.85
2022-11-17T14:16:42.264Z,18.40
2022-11-17T14:19:16.265Z,17.45
2022-11-17T14:22:13.253Z,17.70
2022-11-17T14:24:45.945Z,17.48
2022-11-17T14:27:27.205Z,19.95
2022-11-17T14:29:55.424Z,22.35
2022-11-17T14:32:23.732Z,22.48
2022-11-17T14:34:51.734Z,23.27
2022-11-17T14:37:20.158Z,24.08
2022-11-17T14:39:48.233Z,24.90
2022-11-17T14:42:16.593Z,22.45
2022-11-17T14:44:44.603Z,22.02
2022-11-17T14:47:12.956Z,22.55
2022-11-17T14:49:40.883Z,21.30
2022-11-17T14:52:09.703Z,22.48
2022-11-17T14:54:37.573Z,23.02
2022-11-17T14:57:05.846Z,24.95
2022-11-17T14:59:35.413Z,25.40
2022-11-17T15:02:04.454Z,25.40
2022-11-17T15:04:50.060Z,23.73
2022-11-17T15:07:19.702Z,24.33
2022-11-17T15:09:47.685Z,24.92
2022-11-17T15:12:17.417Z,23.95
2022-11-17T15:14:48.163Z,28.40
2022-11-17T15:17:17.061Z,24.08
2022-11-17T15:19:45.872Z,22.70
2022-11-17T15:22:14.704Z,23.27
2022-11-17T15:24:42.683Z,26.88
2022-11-17T15:27:12.573Z,26.88
2022-11-17T15:29:41.196Z,23.77
2022-11-17T15:32:10.873Z,21.50
2022-11-17T15:34:38.819Z,19.25
2022-11-17T15:37:07.655Z,20.17
2022-11-17T15:39:36.359Z,19.88
2022-11-17T15:42:04.658Z,19.73
2022-11-17T15:44:32.552Z,19.83
2022-11-17T15:47:00.844Z,19.52
2022-11-17T15:49:28.774Z,19.80
2022-11-17T15:51:57.074Z,20.27
2022-11-17T15:54:25.119Z,19.70
2022-11-17T15:56:55.737Z,21.33
2022-11-17T15:59:23.763Z,20.88
2022-11-17T16:01:51.943Z,20.90
2022-11-17T16:04:19.932Z,21.85
2022-11-17T16:06:48.236Z,21.27
2022-11-17T16:09:17.306Z,21.02
2022-11-17T16:11:46.078Z,23.52
2022-11-17T16:14:15.337Z,25.48
2022-11-17T16:16:46.206Z,26.55
2022-11-17T16:19:14.728Z,28.98
2022-11-17T16:21:44.735Z,27.10
2022-11-17T16:24:12.848Z,28.42
2022-11-17T16:26:41.251Z,28.73
2022-11-17T16:29:09.490Z,32.35
2022-11-17T16:31:39.167Z,32.25
2022-11-17T16:34:13.314Z,31.25
2022-11-17T16:36:43.854Z,30.15
2022-11-17T16:39:17.311Z,29.33
2022-11-17T16:41:46.526Z,30.83
2022-11-17T16:44:17.285Z,30.23
2022-11-17T16:46:48.172Z,29.55
2022-11-17T16:49:18.165Z,28.80
2022-11-17T16:51:51.838Z,26.75
2022-11-17T16:54:21.854Z,27.77
2022-11-17T16:56:51.278Z,28.70
2022-11-17T16:59:19.830Z,27.50
2022-11-17T17:01:49.472Z,27.05
2022-11-17T17:04:17.637Z,27.45
2022-11-17T17:06:46.973Z,28.25
2022-11-17T17:09:15.907Z,26.55
2022-11-17T17:11:44.442Z,28.33
2022-11-17T17:14:14.596Z,29.00
2022-11-17T17:16:43.198Z,27.88
2022-11-17T17:19:13.622Z,29.05
2022-11-17T17:21:43.706Z,33.28
2022-11-17T17:24:12.406Z,29.40
2022-11-17T17:26:41.326Z,30.33
2022-11-17T17:29:12.025Z,35.55
2022-11-17T17:31:43.008Z,33.35
2022-11-17T17:34:13.038Z,29.58
2022-11-17T17:36:41.413Z,29.02
2022-11-17T17:39:16.224Z,29.48
2022-11-17T17:41:46.046Z,29.48
2022-11-17T17:44:19.237Z,29.17
2022-11-17T17:46:48.633Z,29.23
2022-11-17T17:49:19.112Z,29.92
2022-11-17T17:51:48.308Z,29.83
2022-11-17T17:54:19.016Z,28.08
2022-11-17T17:56:48.418Z,28.15
2022-11-17T17:59:17.021Z,27.25
2022-11-17T18:01:47.815Z,26.08
2022-11-17T18:04:16.846Z,29.33
2022-11-17T18:06:49.177Z,28.30
2022-11-17T18:09:20.731Z,28.88
2022-11-17T18:11:51.209Z,29.50
2022-11-17T18:14:25.149Z,28.17
2022-11-17T18:16:54.422Z,28.05
2022-11-17T18:19:26.932Z,28.08
2022-11-17T18:21:59.244Z,27.50
2022-11-17T18:24:27.183Z,26.50
2022-11-17T18:26:55.403Z,25.63
2022-11-17T18:29:23.526Z,25.42
2022-11-17T18:31:51.996Z,27.75
2022-11-17T18:34:22.273Z,27.77
2022-11-17T18:36:52.636Z,28.50
2022-11-17T18:39:21.542Z,26.17
2022-11-17T18:41:50.021Z,27.80
2022-11-17T18:44:21.712Z,28.02
2022-11-17T18:46:50.163Z,33.00
2022-11-17T18:49:18.593Z,32.17
2022-11-17T18:51:47.648Z,29.70
2022-11-17T18:54:15.935Z,30.02
2022-11-17T18:56:44.851Z,29.95
2022-11-17T18:59:13.245Z,32.45
2022-11-17T19:01:43.306Z,31.13
2022-11-17T19:04:15.291Z,32.08
2022-11-17T19:06:43.748Z,31.13
2022-11-17T19:09:11.889Z,29.58
2022-11-17T19:11:40.300Z,31.08
2022-11-17T19:14:08.356Z,29.73
2022-11-17T19:16:44.608Z,30.55
2022-11-17T19:19:14.468Z,45.33
2022-11-17T19:21:43.409Z,29.98
2022-11-17T19:24:11.740Z,29.00
2022-11-17T19:26:43.003Z,28.42
2022-11-17T19:29:16.633Z,28.88
2022-11-17T19:31:47.061Z,29.38
2022-11-17T19:34:16.267Z,29.63
2022-11-17T19:36:45.809Z,28.33
2022-11-17T19:39:14.876Z,30.38
2022-11-17T19:41:45.463Z,29.58
2022-11-17T19:44:13.620Z,29.98
2022-11-17T19:46:43.513Z,30.70
2022-11-17T19:49:11.995Z,29.77
2022-11-17T19:51:41.530Z,29.13
2022-11-17T19:54:11.977Z,27.40
2022-11-17T19:56:40.425Z,29.33
2022-11-17T19:59:13.995Z,30.25
2022-11-17T20:01:45.432Z,28.60
2022-11-17T20:04:13.758Z,28.83
2022-11-17T20:06:42.661Z,30.30
2022-11-17T20:09:13.914Z,30.73
2022-11-17T20:11:43.163Z,29.52
2022-11-17T20:14:11.389Z,30.30
2022-11-17T20:16:39.966Z,32.38
2022-11-17T20:19:09.251Z,30.25
2022-11-17T20:21:37.865Z,30.00
2022-11-17T20:24:06.269Z,30.98
2022-11-17T20:26:36.179Z,31.83
2022-11-17T20:29:04.484Z,29.98
2022-11-17T20:31:35.547Z,31.63
2022-11-17T20:34:05.882Z,30.38
2022-11-17T20:36:35.888Z,30.52
2022-11-17T20:39:06.779Z,31.27
2022-11-17T20:41:35.347Z,29.70
2022-11-17T20:44:04.538Z,29.40
2022-11-17T20:46:34.718Z,28.52
2022-11-17T20:49:02.898Z,28.90
2022-11-17T20:51:32.465Z,28.52
2022-11-17T20:54:00.680Z,28.65
2022-11-17T20:56:29.177Z,28.10
2022-11-17T20:58:57.338Z,29.98
2022-11-17T21:01:26.241Z,30.80
2022-11-17T21:03:54.451Z,29.10
2022-11-17T21:06:25.689Z,28.58
2022-11-17T21:08:53.921Z,28.08
2022-11-17T21:11:44.009Z,28.08
2022-11-17T21:14:13.497Z,27.67
2022-11-17T21:16:46.942Z,29.58
2022-11-17T21:19:16.258Z,29.98
2022-11-17T21:21:45.369Z,29.60
2022-11-17T21:24:13.748Z,30.55
2022-11-17T21:26:42.258Z,30.95
2022-11-17T21:29:10.367Z,28.58
2022-11-17T21:31:38.987Z,29.25
2022-11-17T21:34:07.752Z,31.50
2022-11-17T21:36:36.480Z,29.98
2022-11-17T21:39:06.387Z,32.40
2022-11-17T21:41:38.899Z,29.92
2022-11-17T21:44:07.156Z,31.10
2022-11-17T21:46:36.966Z,30.80
2022-11-17T21:49:05.280Z,29.15
2022-11-17T21:51:38.745Z,30.98
2022-11-17T21:54:09.238Z,30.80
2022-11-17T21:56:38.052Z,31.60
2022-11-17T21:59:10.609Z,31.15
2022-11-17T22:01:40.752Z,30.75
2022-11-17T22:04:11.141Z,31.80
2022-11-17T22:06:40.807Z,31.60
2022-11-17T22:09:10.220Z,30.75
2022-11-17T22:11:39.252Z,30.77
2022-11-17T22:14:09.239Z,30.88
2022-11-17T22:16:40.910Z,32.65
2022-11-17T22:19:09.675Z,30.08
2022-11-17T22:21:39.837Z,29.35
2022-11-17T22:24:10.797Z,31.88
2022-11-17T22:26:44.068Z,31.05
2022-11-17T22:29:20.149Z,32.28
2022-11-17T22:31:49.826Z,30.17
2022-11-17T22:34:18.835Z,29.95
2022-11-17T22:36:47.204Z,31.48
2022-11-17T22:39:17.062Z,30.63
2022-11-17T22:41:45.602Z,30.88
2022-11-17T22:44:15.683Z,31.00
2022-11-17T22:46:44.234Z,30.45
2022-11-17T22:49:13.696Z,31.40
2022-11-17T22:52:01.446Z,30.88
2022-11-17T22:54:30.623Z,29.90
2022-11-17T22:57:00.084Z,30.95
2022-11-17T22:59:30.060Z,30.17
2022-11-17T23:01:58.281Z,30.67
2022-11-17T23:04:26.322Z,30.58
2022-11-17T23:06:55.193Z,28.88
2022-11-17T23:09:23.343Z,31.13
2022-11-17T23:11:51.674Z,31.30
2022-11-17T23:14:20.242Z,29.13
2022-11-17T23:16:48.633Z,29.58
2022-11-17T23:19:16.842Z,30.33
2022-11-17T23:21:46.723Z,30.80
2022-11-17T23:24:14.994Z,29.08
2022-11-17T23:26:43.263Z,28.80
2022-11-17T23:29:11.338Z,29.42
2022-11-17T23:31:39.903Z,27.88
2022-11-17T23:34:11.134Z,25.42
2022-11-17T23:36:39.626Z,26.80
2022-11-17T23:39:07.694Z,23.17
2022-11-17T23:41:35.958Z,23.88
2022-11-17T23:44:04.049Z,23.05
2022-11-17T23:46:32.347Z,23.98
2022-11-17T23:49:00.327Z,24.25
2022-11-17T23:51:30.961Z,24.90
2022-11-17T23:54:01.114Z,20.98
2022-11-17T23:56:33.809Z,22.42
2022-11-17T23:59:01.832Z,24.42
